Time;durP1;ratioP1;P1;durP2;ratioP2;P2;SDS_P1;SDS_P2;PMS_P1;PMS_P2;Temp;Humidity;BMP_temperature;BMP_pressure;BME280_temperature;BME280_humidity;BME280_pressure;Samples;Min_cycle;Max_cycle;Signal;HPM_P1;HPM_P2
2021/11/14 00:15:36;;;;;;;;;;;;;;;-0.50;100.00;100303.49;1652748;85;21157;-69
2021/11/14 00:18:04;;;;;;;;;;;;;;;-0.48;100.00;100302.02;1662292;86;20150;-69
2021/11/14 00:20:32;;;;;;;;;;;;;;;-0.49;100.00;100297.72;1661216;85;20193;-69
2021/11/14 00:22:59;;;;;;;;;;;;;;;-0.47;100.00;100295.75;1661004;85;20201;-69
2021/11/14 00:25:25;;;;;;;;;;;;;;;-0.43;100.00;100298.40;1660953;86;20141;-70
2021/11/14 00:27:52;;;;;;;;;;;;;;;-0.37;100.00;100292.95;1660806;85;21498;-69
2021/11/14 00:30:21;;;;;;;;;;;;;;;-0.31;100.00;100295.77;1651729;85;20154;-69
2021/11/14 00:32:51;;;;;;;;;;;;;;;-0.30;100.00;100289.98;1642269;85;20149;-69
2021/11/14 00:35:16;;;;;;;;;;;;;;;-0.28;100.00;100290.15;1640928;85;20223;-69
2021/11/14 00:37:43;;;;;;;;;;;;;;;-0.26;100.00;100284.22;1630503;86;20505;-69
2021/11/14 00:40:13;;;;;;;;;;;;;;;-0.23;100.00;100289.16;1645969;85;21902;-69
2021/11/14 00:42:42;;;;;;;;;;;;;;;-0.21;100.00;100286.36;1660937;85;20122;-69
2021/11/14 00:45:09;;;;;;;;;;;;;;;-0.21;100.00;100283.73;1660815;86;20355;-69
2021/11/14 00:47:36;;;;;;;;;;;;;;;-0.17;100.00;100285.53;1660897;85;20638;-69
2021/11/14 00:50:07;;;;;;;;;;;;;;;-0.15;100.00;100285.69;1595089;86;20463;-69
2021/11/14 00:52:32;;;;;;;;;;;;;;;-0.13;100.00;100284.22;1671602;84;21181;-69
2021/11/14 00:54:58;;;;;;;;;;;;;;;-0.10;100.00;100282.55;1664437;85;20175;-69
2021/11/14 00:57:24;;;;;;;;;;;;;;;-0.07;100.00;100290.98;1682696;85;20166;-69
2021/11/14 00:59:51;;;;;;;;;;;;;;;-0.04;100.00;100289.82;1681907;84;20828;-69
2021/11/14 01:02:17;;;;;;;;;;;;;;;-0.02;100.00;100288.66;1681143;84;20148;-69
2021/11/14 01:04:44;;;;;;;;;;;;;;;0.01;100.00;100284.05;1680869;84;21850;-70
2021/11/14 01:07:11;;;;;;;;;;;;;;;0.03;100.00;100286.84;1680877;85;20104;-69
2021/11/14 01:09:39;;;;;;;;;;;;;;;0.06;100.00;100291.78;1675734;84;20447;-69
2021/11/14 01:12:30;;;;;;;;;;;;;;;0.09;100.00;100288.80;1666804;85;20334;-69
2021/11/14 01:14:56;;;;;;;;;;;;;;;0.12;100.00;100285.00;1563695;90;20207;-69
2021/11/14 01:17:23;;;;;;;;;;;;;;;0.15;100.00;100276.77;1563018;91;21191;-70
2021/11/14 01:19:49;;;;;;;;;;;;;;;0.19;100.00;100281.52;1564146;90;20187;-69
2021/11/14 01:22:16;;;;;;;;;;;;;;;0.20;100.00;100277.08;1566423;89;20178;-70
2021/11/14 01:24:44;;;;;;;;;;;;;;;0.22;100.00;100273.75;1564470;90;22163;-68
2021/11/14 01:27:10;;;;;;;;;;;;;;;0.25;100.00;100272.62;1564211;90;20218;-68
2021/11/14 01:29:37;;;;;;;;;;;;;;;0.29;100.00;100262.84;1563581;90;22050;-71
2021/11/14 01:32:05;;;;;;;;;;;;;;;0.30;100.00;100267.15;1556537;91;20191;-71
2021/11/14 01:34:31;;;;;;;;;;;;;;;0.32;100.00;100273.56;1556366;91;20452;-71
2021/11/14 01:36:58;;;;;;;;;;;;;;;0.33;100.00;100273.41;1556355;91;20253;-68
2021/11/14 01:39:24;;;;;;;;;;;;;;;0.35;100.00;100275.39;1557213;91;20267;-68
2021/11/14 01:41:51;;;;;;;;;;;;;;;0.38;100.00;100276.86;1557397;90;21173;-67
2021/11/14 01:44:17;;;;;;;;;;;;;;;0.41;100.00;100269.91;1560067;89;20503;-68
2021/11/14 01:46:44;;;;;;;;;;;;;;;0.45;100.00;100274.37;1559682;91;20143;-68
2021/11/14 01:49:11;;;;;;;;;;;;;;;0.45;100.00;100268.59;1559132;91;20182;-69
2021/11/14 01:51:37;;;;;;;;;;;;;;;0.47;100.00;100274.53;1587167;87;20152;-69
2021/11/14 01:54:04;;;;;;;;;;;;;;;0.51;100.00;100272.36;1650709;85;21170;-69
2021/11/14 01:56:31;;;;;;;;;;;;;;;0.55;100.00;100274.49;1649269;85;20118;-69
2021/11/14 01:58:58;;;;;;;;;;;;;;;0.59;100.00;100271.84;1634262;85;20180;-69
2021/11/14 02:01:28;;;;;;;;;;;;;;;0.63;100.00;100274.95;1622995;88;20151;-68
2021/11/14 02:03:58;;;;;;;;;;;;;;;0.68;100.00;100278.41;1622916;87;20213;-68
2021/11/14 02:06:25;;;;;;;;;;;;;;;0.72;100.00;100273.12;1623022;87;21178;-68
2021/11/14 02:08:53;;;;;;;;;;;;;;;0.76;100.00;100267.79;1635740;87;20091;-68
2021/11/14 02:11:19;;;;;;;;;;;;;;;0.81;100.00;100273.41;1627351;85;20495;-68
2021/11/14 02:13:47;;;;;;;;;;;;;;;0.83;100.00;100270.92;1641221;86;20173;-68
2021/11/14 02:16:14;;;;;;;;;;;;;;;0.88;100.00;100273.02;1669156;84;20142;-69
2021/11/14 02:18:41;;;;;;;;;;;;;;;0.89;100.00;100273.36;1669334;84;21157;-68
2021/11/14 02:21:07;;;;;;;;;;;;;;;0.90;100.00;100272.35;1653495;85;20124;-68
2021/11/14 02:23:34;;;;;;;;;;;;;;;0.92;100.00;100274.83;1641933;86;20218;-68
2021/11/14 02:26:00;;;;;;;;;;;;;;;0.94;100.00;100285.56;1642465;86;20206;-68
2021/11/14 02:28:28;;;;;;;;;;;;;;;0.98;100.00;100272.80;1642043;86;20120;-68
2021/11/14 02:30:57;;;;;;;;;;;;;;;1.00;100.00;100272.95;1642246;87;21876;-68
2021/11/14 02:33:26;;;;;;;;;;;;;;;1.03;100.00;100282.39;1642049;86;20136;-69
2021/11/14 02:35:55;;;;;;;;;;;;;;;1.04;100.00;100283.52;1669341;84;20121;-69
2021/11/14 02:38:23;;;;;;;;;;;;;;;1.06;100.00;100283.35;1668875;84;20753;-68
2021/11/14 02:40:51;;;;;;;;;;;;;;;1.08;100.00;100282.69;1669132;85;20221;-69
2021/11/14 02:43:19;;;;;;;;;;;;;;;1.09;100.00;100283.00;1669080;84;21128;-68
2021/11/14 02:45:45;;;;;;;;;;;;;;;1.09;100.00;100279.03;1661303;84;20150;-68
2021/11/14 02:48:12;;;;;;;;;;;;;;;1.10;100.00;100277.20;1648685;86;20445;-68
2021/11/14 02:50:41;;;;;;;;;;;;;;;1.12;100.00;100275.22;1668991;84;20172;-68
2021/11/14 02:53:08;;;;;;;;;;;;;;;1.15;100.00;100273.53;1669380;84;20424;-68
2021/11/14 02:55:42;;;;;;;;;;;;;;;1.15;100.00;100273.06;1669259;84;21941;-69
2021/11/14 02:58:09;;;;;;;;;;;;;;;1.20;100.00;100268.55;1666581;84;20738;-68
2021/11/14 03:00:41;;;;;;;;;;;;;;;1.22;100.00;100268.69;1669385;85;20999;-68
2021/11/14 03:03:09;;;;;;;;;;;;;;;1.23;100.00;100271.67;1668304;84;20220;-68
2021/11/14 03:05:37;;;;;;;;;;;;;;;1.26;100.00;100265.22;1668983;86;20216;-69
2021/11/14 03:08:04;;;;;;;;;;;;;;;1.27;100.00;100264.20;1669203;86;21112;-69
2021/11/14 03:10:31;;;;;;;;;;;;;;;1.31;100.00;100264.19;1669359;85;20462;-70
2021/11/14 03:13:03;;;;;;;;;;;;;;;1.33;100.00;100256.91;1668639;84;20153;-69
2021/11/14 03:15:35;;;;;;;;;;;;;;;1.38;100.00;100265.13;1649225;86;20153;-69
2021/11/14 03:18:03;;;;;;;;;;;;;;;1.42;100.00;100258.50;1635817;87;20157;-69
2021/11/14 03:20:30;;;;;;;;;;;;;;;1.44;100.00;100256.98;1622795;87;21162;-69
2021/11/14 03:22:57;;;;;;;;;;;;;;;1.47;100.00;100255.30;1626568;85;20149;-69
2021/11/14 03:25:25;;;;;;;;;;;;;;;1.49;100.00;100259.44;1634426;87;20104;-70
2021/11/14 03:27:52;;;;;;;;;;;;;;;1.55;100.00;100254.44;1622819;87;20124;-69
2021/11/14 03:30:19;;;;;;;;;;;;;;;1.60;100.00;100260.02;1622635;88;20137;-69
2021/11/14 03:32:45;;;;;;;;;;;;;;;1.62;100.00;100253.54;1645727;86;21190;-69
2021/11/14 03:35:12;;;;;;;;;;;;;;;1.63;100.00;100251.20;1649292;86;20106;-70
2021/11/14 03:37:39;;;;;;;;;;;;;;;1.70;100.00;100246.03;1649477;86;20452;-69
2021/11/14 03:40:07;;;;;;;;;;;;;;;1.72;100.00;100250.64;1649243;85;20159;-68
2021/11/14 03:42:35;;;;;;;;;;;;;;;1.73;100.00;100243.02;1649291;85;20142;-68
2021/11/14 03:45:02;;;;;;;;;;;;;;;1.78;100.00;100243.80;1649289;87;21199;-68
2021/11/14 03:47:29;;;;;;;;;;;;;;;1.79;100.00;100242.79;1626408;86;20129;-69
2021/11/14 03:49:57;;;;;;;;;;;;;;;1.80;100.00;100246.59;1622648;87;20125;-69
2021/11/14 03:52:23;;;;;;;;;;;;;;;1.81;100.00;100256.67;1624099;85;20175;-69
2021/11/14 03:54:50;;;;;;;;;;;;;;;1.82;100.00;100251.21;1638455;87;20192;-69
2021/11/14 03:57:17;;;;;;;;;;;;;;;1.86;100.00;100255.16;1622706;87;21158;-69
2021/11/14 03:59:43;;;;;;;;;;;;;;;1.89;100.00;100263.23;1624461;87;20142;-68
2021/11/14 04:02:10;;;;;;;;;;;;;;;1.89;100.00;100254.79;1622716;87;20176;-69
2021/11/14 04:04:37;;;;;;;;;;;;;;;1.95;100.00;100267.80;1622493;87;20673;-68
2021/11/14 04:07:04;;;;;;;;;;;;;;;1.99;100.00;100268.28;1626629;87;20478;-69
2021/11/14 04:09:32;;;;;;;;;;;;;;;1.99;100.00;100269.60;1622745;87;20147;-69
2021/11/14 04:11:59;;;;;;;;;;;;;;;2.00;100.00;100273.38;1622935;87;20120;-69
2021/11/14 04:14:25;;;;;;;;;;;;;;;2.00;100.00;100270.73;1632050;85;20541;-69
2021/11/14 04:16:52;;;;;;;;;;;;;;;2.00;100.00;100266.75;1643740;86;20151;-69
2021/11/14 04:19:19;;;;;;;;;;;;;;;2.02;100.00;100274.53;1641950;87;20096;-69
2021/11/14 04:21:45;;;;;;;;;;;;;;;2.04;100.00;100273.85;1641874;86;21144;-69
2021/11/14 04:24:12;;;;;;;;;;;;;;;2.04;100.00;100270.70;1641849;86;20131;-69
2021/11/14 04:26:39;;;;;;;;;;;;;;;2.06;100.00;100275.31;1643656;86;20092;-69
2021/11/14 04:29:06;;;;;;;;;;;;;;;2.08;100.00;100274.64;1642026;87;20107;-68
2021/11/14 04:31:33;;;;;;;;;;;;;;;2.10;100.00;100277.91;1657254;84;20170;-68
2021/11/14 04:34:00;;;;;;;;;;;;;;;2.19;100.00;100268.58;1642054;86;21231;-68
2021/11/14 04:36:26;;;;;;;;;;;;;;;2.21;100.00;100275.33;1643779;86;20093;-68
2021/11/14 04:38:53;;;;;;;;;;;;;;;2.22;100.00;100278.29;1659544;84;20133;-69
2021/11/14 04:41:19;;;;;;;;;;;;;;;2.25;100.00;100282.40;1661193;84;20643;-68
2021/11/14 04:43:47;;;;;;;;;;;;;;;2.26;100.00;100280.09;1655250;85;20196;-68
2021/11/14 04:46:14;;;;;;;;;;;;;;;2.25;100.00;100276.59;1650776;84;21196;-68
2021/11/14 04:48:41;;;;;;;;;;;;;;;2.25;100.00;100273.94;1652359;84;20156;-69
2021/11/14 04:51:08;;;;;;;;;;;;;;;2.24;100.00;100280.26;1656299;84;20212;-69
2021/11/14 04:53:35;;;;;;;;;;;;;;;2.24;100.00;100274.96;1653446;84;20188;-69
2021/11/14 04:56:02;;;;;;;;;;;;;;;2.24;100.00;100276.80;1656740;84;20508;-69
2021/11/14 04:58:30;;;;;;;;;;;;;;;2.24;100.00;100277.61;1659613;84;21979;-69
2021/11/14 05:00:56;;;;;;;;;;;;;;;2.24;100.00;100275.47;1656992;84;20119;-69
2021/11/14 05:03:23;;;;;;;;;;;;;;;2.23;100.00;100275.13;1656170;86;20184;-69
2021/11/14 05:05:50;;;;;;;;;;;;;;;2.22;100.00;100278.80;1669461;84;20708;-69
2021/11/14 05:08:17;;;;;;;;;;;;;;;2.21;100.00;100287.25;1669113;86;20173;-69
2021/11/14 05:10:46;;;;;;;;;;;;;;;2.20;100.00;100288.23;1665030;84;21124;-69
2021/11/14 05:13:12;;;;;;;;;;;;;;;2.20;100.00;100287.42;1642005;86;20091;-69
2021/11/14 05:15:40;;;;;;;;;;;;;;;2.20;100.00;100290.07;1625295;85;20081;-69
2021/11/14 05:18:07;;;;;;;;;;;;;;;2.20;100.00;100285.59;1622885;87;20454;-69
2021/11/14 05:20:34;;;;;;;;;;;;;;;2.22;100.00;100290.20;1623076;87;20208;-69
2021/11/14 05:23:02;;;;;;;;;;;;;;;2.24;100.00;100294.83;1622895;87;21178;-69
2021/11/14 05:25:29;;;;;;;;;;;;;;;2.26;100.00;100303.42;1647546;86;20149;-70
2021/11/14 05:27:55;;;;;;;;;;;;;;;2.29;100.00;100307.03;1623107;87;20215;-68
2021/11/14 05:30:22;;;;;;;;;;;;;;;2.32;100.00;100307.98;1623751;85;20450;-69
2021/11/14 05:32:48;;;;;;;;;;;;;;;2.32;100.00;100306.66;1640250;85;20442;-69
2021/11/14 05:35:16;;;;;;;;;;;;;;;2.36;100.00;100303.16;1623032;87;21152;-69
2021/11/14 05:37:42;;;;;;;;;;;;;;;2.37;100.00;100302.14;1636780;85;20444;-69
2021/11/14 05:40:10;;;;;;;;;;;;;;;2.40;100.00;100303.60;1649621;86;20499;-69
2021/11/14 05:42:38;;;;;;;;;;;;;;;2.43;100.00;100305.91;1649442;86;20126;-69
2021/11/14 05:45:04;;;;;;;;;;;;;;;2.46;100.00;100310.33;1649161;85;20479;-69
2021/11/14 05:47:31;;;;;;;;;;;;;;;2.48;100.00;100315.46;1647514;85;21158;-69
2021/11/14 05:49:58;;;;;;;;;;;;;;;2.51;100.00;100323.04;1649224;86;20417;-69
2021/11/14 05:52:28;;;;;;;;;;;;;;;2.53;100.00;100319.20;1649327;86;20412;-69
2021/11/14 05:54:54;;;;;;;;;;;;;;;2.57;100.00;100315.19;1649562;85;20384;-69
2021/11/14 05:57:21;;;;;;;;;;;;;;;2.59;100.00;100313.66;1649234;85;20146;-70
2021/11/14 05:59:56;;;;;;;;;;;;;;;2.61;100.00;100312.98;1649226;86;21193;-70
2021/11/14 06:07:21;;;;;;;;;;;;;;;2.68;100.00;100313.08;1622808;85;20188;-69
2021/11/14 06:09:48;;;;;;;;;;;;;;;2.72;100.00;100322.29;1659833;84;20175;-68
2021/11/14 06:12:14;;;;;;;;;;;;;;;2.76;100.00;100320.41;1648941;87;21327;-69
2021/11/14 06:14:42;;;;;;;;;;;;;;;2.79;100.00;100315.25;1648885;84;20169;-70
2021/11/14 06:17:20;;;;;;;;;;;;;;;2.83;100.00;100321.84;1629361;85;20182;-69
2021/11/14 06:19:47;;;;;;;;;;;;;;;2.86;100.00;100324.11;1622588;87;20148;-71
2021/11/14 06:22:16;;;;;;;;;;;;;;;2.88;100.00;100315.98;1622479;87;20180;-71
2021/11/14 06:24:44;;;;;;;;;;;;;;;2.89;100.00;100314.97;1628215;85;20165;-71
2021/11/14 06:27:11;;;;;;;;;;;;;;;2.91;100.00;100314.28;1625874;85;20512;-71
2021/11/14 06:29:37;;;;;;;;;;;;;;;2.96;100.00;100314.55;1623049;87;20568;-68
2021/11/14 06:32:05;;;;;;;;;;;;;;;2.97;100.00;100310.91;1628552;85;20172;-68
2021/11/14 06:34:32;;;;;;;;;;;;;;;3.00;100.00;100311.85;1629349;85;20208;-68
2021/11/14 06:36:59;;;;;;;;;;;;;;;3.06;100.00;100315.08;1624396;87;21185;-69
2021/11/14 06:39:25;;;;;;;;;;;;;;;3.13;100.00;100304.55;1622618;88;20612;-70
2021/11/14 06:41:52;;;;;;;;;;;;;;;3.17;100.00;100311.95;1622460;87;20108;-70
2021/11/14 06:44:18;;;;;;;;;;;;;;;3.23;100.00;100314.35;1622692;88;20121;-70
2021/11/14 06:46:45;;;;;;;;;;;;;;;3.27;100.00;100304.20;1623073;87;20192;-69
2021/11/14 06:49:12;;;;;;;;;;;;;;;3.30;100.00;100315.77;1646369;87;20936;-69
2021/11/14 06:51:41;;;;;;;;;;;;;;;3.33;100.00;100308.74;1629871;85;20148;-72
2021/11/14 06:54:08;;;;;;;;;;;;;;;3.37;100.00;100310.02;1654548;85;20202;-70
2021/11/14 06:56:34;;;;;;;;;;;;;;;3.41;100.00;100304.67;1639882;86;20185;-70
2021/11/14 06:59:01;;;;;;;;;;;;;;;3.44;100.00;100305.61;1646170;87;20159;-71
2021/11/14 07:01:28;;;;;;;;;;;;;;;3.54;100.00;100317.24;1646468;85;22020;-72
2021/11/14 07:03:56;;;;;;;;;;;;;;;3.57;100.00;100305.73;1645821;84;20242;-71
2021/11/14 07:06:24;;;;;;;;;;;;;;;3.62;100.00;100313.12;1643114;87;20293;-70
2021/11/14 07:08:51;;;;;;;;;;;;;;;3.65;100.00;100306.13;1648049;85;20166;-70
2021/11/14 07:11:23;;;;;;;;;;;;;;;3.69;100.00;100312.69;1646967;85;20704;-71
2021/11/14 07:13:49;;;;;;;;;;;;;;;3.73;100.00;100307.83;1647356;85;21389;-71
2021/11/14 07:16:17;;;;;;;;;;;;;;;3.74;100.00;100314.77;1663320;85;20157;-70
2021/11/14 07:18:45;;;;;;;;;;;;;;;3.79;100.00;100316.35;1665429;84;20236;-70
2021/11/14 07:21:15;;;;;;;;;;;;;;;3.85;100.00;100314.27;1649074;85;20431;-71
2021/11/14 07:23:44;;;;;;;;;;;;;;;3.87;100.00;100316.20;1651246;85;20182;-70
2021/11/14 07:26:12;;;;;;;;;;;;;;;3.93;100.00;100311.47;1607280;89;21162;-70
2021/11/14 07:28:42;;;;;;;;;;;;;;;4.01;100.00;100321.95;1654790;86;20164;-70
2021/11/14 07:31:08;;;;;;;;;;;;;;;4.07;100.00;100312.41;1654549;86;20094;-72
2021/11/14 07:33:40;;;;;;;;;;;;;;;4.09;100.00;100317.00;1652416;85;20407;-71
2021/11/14 07:36:08;;;;;;;;;;;;;;;4.10;100.00;100313.34;1633121;86;20161;-71
2021/11/14 07:38:37;;;;;;;;;;;;;;;4.11;100.00;100318.97;1632787;86;21241;-71
2021/11/14 07:41:03;;;;;;;;;;;;;;;4.12;100.00;100313.98;1631804;86;20093;-71
2021/11/14 07:43:31;;;;;;;;;;;;;;;4.14;100.00;100312.44;1633235;86;20505;-71
2021/11/14 07:45:57;;;;;;;;;;;;;;;4.19;100.00;100311.35;1635111;87;20104;-70
2021/11/14 07:48:24;;;;;;;;;;;;;;;4.22;100.00;100310.48;1636612;86;20088;-69
2021/11/14 07:50:54;;;;;;;;;;;;;;;4.27;100.00;100311.23;1612833;87;21182;-71
2021/11/14 07:53:21;;;;;;;;;;;;;;;4.32;100.00;100307.99;1610961;89;20166;-70
2021/11/14 07:55:49;;;;;;;;;;;;;;;4.31;100.00;100315.12;1611024;88;20123;-72
2021/11/14 07:58:17;;;;;;;;;;;;;;;4.35;100.00;100313.73;1610876;87;20126;-71
2021/11/14 08:00:45;;;;;;;;;;;;;;;4.40;100.00;100320.61;1624255;86;20167;-71
2021/11/14 08:03:13;;;;;;;;;;;;;;;4.44;100.00;100309.91;1627788;86;21734;-71
2021/11/14 08:05:40;;;;;;;;;;;;;;;4.46;100.00;100314.53;1625717;86;20127;-72
2021/11/14 08:08:07;;;;;;;;;;;;;;;4.50;100.00;100318.41;1641720;86;20143;-72
2021/11/14 08:10:35;;;;;;;;;;;;;;;4.56;100.00;100320.83;1637293;86;20976;-72
2021/11/14 08:13:04;;;;;;;;;;;;;;;4.60;100.00;100322.05;1617541;87;20231;-71
2021/11/14 08:15:35;;;;;;;;;;;;;;;4.65;100.00;100323.62;1605443;88;21171;-69
2021/11/14 08:18:06;;;;;;;;;;;;;;;4.70;100.00;100318.55;1659411;84;20470;-69
2021/11/14 08:20:35;;;;;;;;;;;;;;;4.72;100.00;100314.35;1671417;84;20155;-70
2021/11/14 08:23:08;;;;;;;;;;;;;;;4.70;100.00;100317.71;1652017;86;20387;-72
2021/11/14 08:25:35;;;;;;;;;;;;;;;4.67;100.00;100311.47;1641104;86;20144;-71
2021/11/14 08:28:04;;;;;;;;;;;;;;;4.60;100.00;100315.41;1684257;85;20236;-71
2021/11/14 08:30:32;;;;;;;;;;;;;;;4.59;100.00;100315.63;1650649;84;21065;-71
2021/11/14 08:33:00;;;;;;;;;;;;;;;4.57;100.00;100315.80;1653420;84;20152;-74
2021/11/14 08:35:27;;;;;;;;;;;;;;;4.58;100.00;100324.11;1644845;84;20532;-70
2021/11/14 08:37:57;;;;;;;;;;;;;;;4.58;100.00;100316.62;1639284;87;20112;-70
2021/11/14 08:40:25;;;;;;;;;;;;;;;4.58;100.00;100315.29;1639423;86;21859;-71
2021/11/14 08:42:52;;;;;;;;;;;;;;;4.60;100.00;100314.08;1643777;84;20474;-73
2021/11/14 08:45:20;;;;;;;;;;;;;;;4.58;100.00;100313.48;1652907;84;20120;-69
2021/11/14 08:47:47;;;;;;;;;;;;;;;4.57;100.00;100312.33;1658156;84;20150;-71
2021/11/14 08:50:15;;;;;;;;;;;;;;;4.56;100.00;100311.52;1632001;86;20133;-71
2021/11/14 08:52:46;;;;;;;;;;;;;;;4.58;100.00;100316.14;1652811;86;21176;-72
2021/11/14 08:55:17;;;;;;;;;;;;;;;4.61;100.00;100300.30;1665548;84;20148;-71
2021/11/14 08:57:44;;;;;;;;;;;;;;;4.60;100.00;100295.98;1652880;84;20197;-71
2021/11/14 09:00:12;;;;;;;;;;;;;;;4.60;100.00;100299.45;1668660;84;21927;-71
2021/11/14 09:02:42;;;;;;;;;;;;;;;4.62;100.00;100304.07;1692628;84;20456;-70
2021/11/14 09:05:09;;;;;;;;;;;;;;;4.64;100.00;100303.38;1668865;84;21165;-69
2021/11/14 09:07:36;;;;;;;;;;;;;;;4.66;100.00;100307.98;1649179;84;20125;-71
2021/11/14 09:10:06;;;;;;;;;;;;;;;4.69;100.00;100304.93;1658040;84;20158;-70
2021/11/14 09:12:33;;;;;;;;;;;;;;;4.76;100.00;100312.95;1665575;84;20166;-71
2021/11/14 09:15:00;;;;;;;;;;;;;;;4.81;100.00;100303.05;1664165;85;20124;-73
2021/11/14 09:17:28;;;;;;;;;;;;;;;4.84;100.00;100296.81;1629711;86;22081;-72
2021/11/14 09:19:57;;;;;;;;;;;;;;;4.85;100.00;100300.29;1631016;86;20088;-73
2021/11/14 09:22:25;;;;;;;;;;;;;;;4.84;100.00;100300.80;1629738;86;20156;-73
2021/11/14 09:24:54;;;;;;;;;;;;;;;4.87;100.00;100297.74;1631938;85;20426;-71
2021/11/14 09:27:23;;;;;;;;;;;;;;;4.88;100.00;100303.39;1634643;86;20176;-72
2021/11/14 09:29:54;;;;;;;;;;;;;;;4.84;100.00;100295.48;1680893;85;21160;-73
2021/11/14 09:32:23;;;;;;;;;;;;;;;4.84;100.00;100296.81;1674985;85;20138;-73
2021/11/14 09:34:49;;;;;;;;;;;;;;;4.84;100.00;100302.14;1656566;86;20204;-73
2021/11/14 09:37:16;;;;;;;;;;;;;;;4.87;100.00;100298.26;1648564;85;20362;-71
2021/11/14 09:39:52;;;;;;;;;;;;;;;4.87;100.00;100293.75;1654174;85;20215;-70
2021/11/14 09:42:19;;;;;;;;;;;;;;;4.88;100.00;100295.92;1647600;85;21182;-68
2021/11/14 09:44:46;;;;;;;;;;;;;;;4.90;100.00;100297.86;1638656;84;20160;-72
2021/11/14 09:47:14;;;;;;;;;;;;;;;4.93;100.00;100296.97;1653670;84;20211;-71
2021/11/14 09:49:42;;;;;;;;;;;;;;;4.92;100.00;100296.67;1643416;86;20136;-72
2021/11/14 09:52:10;;;;;;;;;;;;;;;4.94;100.00;100292.46;1666794;85;20172;-70
2021/11/14 09:54:38;;;;;;;;;;;;;;;4.94;100.00;100292.46;1642771;85;21245;-73
2021/11/14 09:57:06;;;;;;;;;;;;;;;4.93;100.00;100282.84;1630569;85;20124;-72
2021/11/14 09:59:32;;;;;;;;;;;;;;;4.93;100.00;100284.99;1628812;86;20431;-72
2021/11/14 10:02:01;;;;;;;;;;;;;;;4.93;100.00;100284.99;1659484;86;20118;-71
2021/11/14 10:04:28;;;;;;;;;;;;;;;4.94;100.00;100286.62;1588677;89;20269;-71
2021/11/14 10:06:58;;;;;;;;;;;;;;;4.94;100.00;100279.16;1671920;86;21183;-74
2021/11/14 10:09:30;;;;;;;;;;;;;;;4.95;100.00;100283.48;1671636;84;20180;-72
2021/11/14 10:11:56;;;;;;;;;;;;;;;4.95;100.00;100279.48;1671676;84;20221;-71
2021/11/14 10:14:23;;;;;;;;;;;;;;;4.97;100.00;100276.09;1671963;84;20422;-73
2021/11/14 10:16:51;;;;;;;;;;;;;;;5.01;100.00;100277.86;1676345;84;20205;-73
2021/11/14 10:19:18;;;;;;;;;;;;;;;5.03;100.00;100280.63;1678669;85;21181;-72
2021/11/14 10:21:47;;;;;;;;;;;;;;;5.01;100.00;100281.33;1678841;84;20446;-72
2021/11/14 10:24:15;;;;;;;;;;;;;;;5.03;100.00;100283.81;1655829;85;20195;-74
2021/11/14 10:26:41;;;;;;;;;;;;;;;5.05;100.00;100280.44;1678876;85;20627;-75
2021/11/14 10:29:10;;;;;;;;;;;;;;;5.05;100.00;100279.92;1678913;85;20101;-72
2021/11/14 10:31:38;;;;;;;;;;;;;;;5.09;100.00;100278.48;1679045;84;21210;-72
2021/11/14 10:34:05;;;;;;;;;;;;;;;5.12;100.00;100278.59;1671745;85;20500;-72
2021/11/14 10:36:32;;;;;;;;;;;;;;;5.13;100.00;100278.41;1650406;85;20115;-71
2021/11/14 10:39:10;;;;;;;;;;;;;;;5.14;100.00;100270.75;1649559;85;20138;-72
2021/11/14 10:41:44;;;;;;;;;;;;;;;5.16;100.00;100270.53;1648891;87;20701;-75
2021/11/14 10:44:12;;;;;;;;;;;;;;;5.20;100.00;100269.63;1651212;85;21164;-73
2021/11/14 10:46:38;;;;;;;;;;;;;;;5.18;100.00;100261.84;1624818;87;20105;-69
2021/11/14 10:49:06;;;;;;;;;;;;;;;5.21;100.00;100272.59;1630714;85;20093;-71
2021/11/14 10:51:34;;;;;;;;;;;;;;;5.23;100.00;100272.70;1664816;85;21256;-74
2021/11/14 10:54:01;;;;;;;;;;;;;;;5.24;100.00;100267.70;1676445;84;20185;-71
2021/11/14 10:56:28;;;;;;;;;;;;;;;5.26;100.00;100260.83;1678792;85;21174;-73
2021/11/14 10:58:55;;;;;;;;;;;;;;;5.24;100.00;100262.87;1679070;85;20132;-72
2021/11/14 11:01:22;;;;;;;;;;;;;;;5.27;100.00;100255.83;1678890;85;20132;-71
2021/11/14 11:03:50;;;;;;;;;;;;;;;5.29;100.00;100261.75;1678999;85;20644;-75
2021/11/14 11:06:24;;;;;;;;;;;;;;;5.26;100.00;100253.66;1678921;85;20169;-72
2021/11/14 11:08:55;;;;;;;;;;;;;;;5.27;100.00;100251.33;1657110;85;21167;-74
2021/11/14 11:11:22;;;;;;;;;;;;;;;5.33;100.00;100257.16;1675276;85;20571;-72
2021/11/14 11:13:49;;;;;;;;;;;;;;;5.34;100.00;100255.30;1675309;85;20128;-71
2021/11/14 11:16:18;;;;;;;;;;;;;;;5.36;100.00;100246.61;1649251;85;20175;-71
2021/11/14 11:18:45;;;;;;;;;;;;;;;5.38;100.00;100246.72;1642737;86;20147;-71
2021/11/14 11:21:14;;;;;;;;;;;;;;;5.44;100.00;100255.76;1618813;87;20504;-73
2021/11/14 11:23:45;;;;;;;;;;;;;;;5.49;100.00;100250.64;1643925;87;20181;-70
2021/11/14 11:26:10;;;;;;;;;;;;;;;5.50;100.00;100250.94;1643328;86;20172;-72
2021/11/14 11:28:38;;;;;;;;;;;;;;;5.48;100.00;100252.16;1643977;86;20821;-73
2021/11/14 11:31:07;;;;;;;;;;;;;;;5.50;100.00;100250.13;1642829;86;20211;-70
2021/11/14 11:33:42;;;;;;;;;;;;;;;5.52;100.00;100256.89;1642784;86;21150;-70
2021/11/14 11:36:10;;;;;;;;;;;;;;;5.54;100.00;100252.70;1642545;87;20116;-70
2021/11/14 11:38:37;;;;;;;;;;;;;;;5.53;100.00;100249.71;1635098;87;20202;-70
2021/11/14 11:41:04;;;;;;;;;;;;;;;5.54;100.00;100251.37;1618760;86;20208;-72
2021/11/14 11:43:31;;;;;;;;;;;;;;;5.56;100.00;100256.80;1617593;87;20312;-70
2021/11/14 11:46:10;;;;;;;;;;;;;;;5.56;100.00;100251.47;1646219;86;21164;-72
2021/11/14 11:48:42;;;;;;;;;;;;;;;5.61;100.00;100251.35;1671667;86;20125;-71
2021/11/14 11:51:19;;;;;;;;;;;;;;;5.65;100.00;100257.92;1650961;85;20136;-71
2021/11/14 11:53:59;;;;;;;;;;;;;;;5.67;100.00;100258.54;1666343;86;20171;-72
2021/11/14 11:56:40;;;;;;;;;;;;;;;5.69;100.00;100259.97;1672014;84;20446;-72
2021/11/14 11:59:14;;;;;;;;;;;;;;;5.71;100.00;100265.11;1672116;84;21568;-71
2021/11/14 12:01:48;;;;;;;;;;;;;;;5.69;100.00;100265.30;1669390;86;20136;-69
2021/11/14 12:04:22;;;;;;;;;;;;;;;5.69;100.00;100258.64;1671944;84;20209;-77
2021/11/14 12:06:51;;;;;;;;;;;;;;;5.71;100.00;100255.78;1671947;86;20173;-70
2021/11/14 12:09:19;;;;;;;;;;;;;;;5.74;100.00;100256.18;1650342;85;20509;-72
2021/11/14 12:11:48;;;;;;;;;;;;;;;5.77;100.00;100259.77;1641437;86;21153;-71
2021/11/14 12:14:24;;;;;;;;;;;;;;;5.79;100.00;100264.37;1653214;86;20141;-74
2021/11/14 12:17:02;;;;;;;;;;;;;;;5.78;100.00;100264.57;1666251;85;20245;-71
2021/11/14 12:19:30;;;;;;;;;;;;;;;5.74;100.00;100269.50;1655373;86;20137;-70
2021/11/14 12:22:06;;;;;;;;;;;;;;;5.76;100.00;100270.64;1630393;88;20136;-71
2021/11/14 12:24:55;;;;;;;;;;;;;;;5.78;100.00;100267.23;1629458;88;21133;-71
2021/11/14 12:27:27;;;;;;;;;;;;;;;5.82;100.00;100268.99;1610693;86;20509;-72
2021/11/14 12:30:00;;;;;;;;;;;;;;;5.81;100.00;100266.84;1629434;87;20096;-69
2021/11/14 12:32:42;;;;;;;;;;;;;;;5.83;100.00;100259.96;1608777;86;20719;-71
2021/11/14 12:35:18;;;;;;;;;;;;;;;5.86;100.00;100255.58;1663152;85;20138;-72
2021/11/14 12:37:54;;;;;;;;;;;;;;;5.82;100.00;100251.67;1663094;86;20754;-71
2021/11/14 12:40:36;;;;;;;;;;;;;;;5.82;100.00;100249.02;1663270;86;20133;-71
2021/11/14 12:43:12;;;;;;;;;;;;;;;5.82;100.00;100259.15;1662812;85;20221;-71
2021/11/14 12:46:04;;;;;;;;;;;;;;;5.79;100.00;100253.72;1662978;86;20197;-69
2021/11/14 12:48:30;;;;;;;;;;;;;;;5.83;100.00;100256.81;1634326;85;20203;-72
2021/11/14 12:51:06;;;;;;;;;;;;;;;5.83;100.00;100256.81;1617381;88;21841;-73
2021/11/14 12:54:02;;;;;;;;;;;;;;;5.85;100.00;100257.92;1592778;88;20499;-72
2021/11/14 12:56:32;;;;;;;;;;;;;;;5.86;100.00;100260.91;1579209;90;20455;-72
2021/11/14 12:59:24;;;;;;;;;;;;;;;5.88;100.00;100262.83;1614497;88;20207;-72
2021/11/14 13:01:54;;;;;;;;;;;;;;;5.88;100.00;100261.00;1644504;86;20232;-72